sensor_id;sensor_type;location;lat;lon;timestamp;temperature;humidity
22923;DHT22;11627;51.322;22.816;2023-06-26T00:01:33;18.90;1.00
22923;DHT22;11627;51.322;22.816;2023-06-26T00:04:01;18.70;1.00
22923;DHT22;11627;51.322;22.816;2023-06-26T00:06:28;18.70;1.00
22923;DHT22;11627;51.322;22.816;2023-06-26T00:08:55;18.60;1.00
22923;DHT22;11627;51.322;22.816;2023-06-26T00:11:22;18.60;1.00
22923;DHT22;11627;51.322;22.816;2023-06-26T00:13:50;18.60;1.00
22923;DHT22;11627;51.322;22.816;2023-06-26T00:16:17;18.60;1.00
22923;DHT22;11627;51.322;22.816;2023-06-26T00:18:43;18.70;1.00
22923;DHT22;11627;51.322;22.816;2023-06-26T00:21:10;18.70;1.00
22923;DHT22;11627;51.322;22.816;2023-06-26T00:23:37;18.70;1.00
22923;DHT22;11627;51.322;22.816;2023-06-26T00:26:04;18.60;1.00
22923;DHT22;11627;51.322;22.816;2023-06-26T00:28:31;18.50;1.00
22923;DHT22;11627;51.322;22.816;2023-06-26T00:30:58;18.30;1.00
22923;DHT22;11627;51.322;22.816;2023-06-26T00:33:25;18.30;1.00
22923;DHT22;11627;51.322;22.816;2023-06-26T00:35:52;18.50;1.00
22923;DHT22;11627;51.322;22.816;2023-06-26T00:38:19;18.60;1.00
22923;DHT22;11627;51.322;22.816;2023-06-26T00:40:46;18.50;1.00
22923;DHT22;11627;51.322;22.816;2023-06-26T00:43:14;18.50;1.00
22923;DHT22;11627;51.322;22.816;2023-06-26T00:45:41;18.40;1.00
22923;DHT22;11627;51.322;22.816;2023-06-26T00:48:09;18.30;1.00
22923;DHT22;11627;51.322;22.816;2023-06-26T00:50:38;18.30;1.00
22923;DHT22;11627;51.322;22.816;2023-06-26T00:53:05;18.50;1.00
22923;DHT22;11627;51.322;22.816;2023-06-26T00:55:32;18.40;1.00
22923;DHT22;11627;51.322;22.816;2023-06-26T00:57:59;18.20;1.00
22923;DHT22;11627;51.322;22.816;2023-06-26T01:00:26;18.00;1.00
22923;DHT22;11627;51.322;22.816;2023-06-26T01:02:53;18.00;1.00
22923;DHT22;11627;51.322;22.816;2023-06-26T01:05:19;17.90;1.00
22923;DHT22;11627;51.322;22.816;2023-06-26T01:07:48;17.90;1.00
22923;DHT22;11627;51.322;22.816;2023-06-26T01:10:15;18.00;1.00
22923;DHT22;11627;51.322;22.816;2023-06-26T01:12:43;18.00;1.00
22923;DHT22;11627;51.322;22.816;2023-06-26T01:15:10;18.00;99.90
22923;DHT22;11627;51.322;22.816;2023-06-26T01:17:38;18.00;99.90
22923;DHT22;11627;51.322;22.816;2023-06-26T01:20:07;18.00;99.90
22923;DHT22;11627;51.322;22.816;2023-06-26T01:23:04;18.00;99.90
22923;DHT22;11627;51.322;22.816;2023-06-26T01:26:41;18.00;1.00
22923;DHT22;11627;51.322;22.816;2023-06-26T01:28:43;17.80;99.90
22923;DHT22;11627;51.322;22.816;2023-06-26T01:31:11;17.60;99.90
22923;DHT22;11627;51.322;22.816;2023-06-26T01:33:40;17.40;1.00
22923;DHT22;11627;51.322;22.816;2023-06-26T01:36:08;17.50;1.00
22923;DHT22;11627;51.322;22.816;2023-06-26T01:38:35;17.60;1.00
22923;DHT22;11627;51.322;22.816;2023-06-26T01:41:04;17.80;1.00
22923;DHT22;11627;51.322;22.816;2023-06-26T01:58:03;17.30;1.00
22923;DHT22;11627;51.322;22.816;2023-06-26T02:00:30;17.30;1.00
22923;DHT22;11627;51.322;22.816;2023-06-26T02:02:58;17.40;1.00
22923;DHT22;11627;51.322;22.816;2023-06-26T02:05:24;17.40;1.00
22923;DHT22;11627;51.322;22.816;2023-06-26T02:07:51;17.40;1.00
22923;DHT22;11627;51.322;22.816;2023-06-26T02:10:18;17.40;1.00
22923;DHT22;11627;51.322;22.816;2023-06-26T02:12:45;17.40;1.00
22923;DHT22;11627;51.322;22.816;2023-06-26T02:15:12;17.30;1.00
22923;DHT22;11627;51.322;22.816;2023-06-26T02:17:39;17.20;1.00
22923;DHT22;11627;51.322;22.816;2023-06-26T02:20:07;17.20;1.00
22923;DHT22;11627;51.322;22.816;2023-06-26T02:22:36;17.30;1.00
22923;DHT22;11627;51.322;22.816;2023-06-26T02:25:03;17.30;1.00
22923;DHT22;11627;51.322;22.816;2023-06-26T02:27:30;17.30;1.00
22923;DHT22;11627;51.322;22.816;2023-06-26T02:29:57;17.50;1.00
22923;DHT22;11627;51.322;22.816;2023-06-26T02:32:24;17.60;1.00
22923;DHT22;11627;51.322;22.816;2023-06-26T02:34:51;17.60;1.00
22923;DHT22;11627;51.322;22.816;2023-06-26T02:37:18;17.50;1.00
22923;DHT22;11627;51.322;22.816;2023-06-26T02:39:46;17.20;1.00
22923;DHT22;11627;51.322;22.816;2023-06-26T02:42:13;17.10;1.00
22923;DHT22;11627;51.322;22.816;2023-06-26T02:44:40;17.20;1.00
22923;DHT22;11627;51.322;22.816;2023-06-26T02:47:07;17.20;1.00
22923;DHT22;11627;51.322;22.816;2023-06-26T02:49:35;17.10;1.00
22923;DHT22;11627;51.322;22.816;2023-06-26T02:52:01;16.90;1.00
22923;DHT22;11627;51.322;22.816;2023-06-26T02:54:28;17.00;1.00
22923;DHT22;11627;51.322;22.816;2023-06-26T02:56:55;17.10;1.00
22923;DHT22;11627;51.322;22.816;2023-06-26T02:59:22;16.90;1.00
22923;DHT22;11627;51.322;22.816;2023-06-26T03:01:49;17.00;1.00
22923;DHT22;11627;51.322;22.816;2023-06-26T03:04:16;17.10;1.00
22923;DHT22;11627;51.322;22.816;2023-06-26T03:06:45;17.20;1.00
22923;DHT22;11627;51.322;22.816;2023-06-26T03:09:11;17.20;1.00
22923;DHT22;11627;51.322;22.816;2023-06-26T03:11:38;17.30;1.00
22923;DHT22;11627;51.322;22.816;2023-06-26T03:14:05;17.40;1.00
22923;DHT22;11627;51.322;22.816;2023-06-26T03:16:32;17.50;1.00
22923;DHT22;11627;51.322;22.816;2023-06-26T03:18:59;17.50;1.00
22923;DHT22;11627;51.322;22.816;2023-06-26T03:21:26;17.40;1.00
22923;DHT22;11627;51.322;22.816;2023-06-26T03:23:53;17.50;1.00
22923;DHT22;11627;51.322;22.816;2023-06-26T03:26:21;17.50;1.00
22923;DHT22;11627;51.322;22.816;2023-06-26T03:28:55;17.50;1.00
22923;DHT22;11627;51.322;22.816;2023-06-26T03:31:22;17.50;1.00
22923;DHT22;11627;51.322;22.816;2023-06-26T03:33:49;17.40;1.00
22923;DHT22;11627;51.322;22.816;2023-06-26T03:36:16;17.30;1.00
22923;DHT22;11627;51.322;22.816;2023-06-26T03:38:43;17.20;1.00
22923;DHT22;11627;51.322;22.816;2023-06-26T03:41:09;17.00;1.00
22923;DHT22;11627;51.322;22.816;2023-06-26T03:43:37;17.00;1.00
22923;DHT22;11627;51.322;22.816;2023-06-26T03:46:04;17.00;1.00
22923;DHT22;11627;51.322;22.816;2023-06-26T03:48:31;17.10;1.00
22923;DHT22;11627;51.322;22.816;2023-06-26T03:50:58;17.00;1.00
22923;DHT22;11627;51.322;22.816;2023-06-26T03:53:25;17.10;1.00
22923;DHT22;11627;51.322;22.816;2023-06-26T03:55:52;17.30;1.00
22923;DHT22;11627;51.322;22.816;2023-06-26T03:58:19;17.30;1.00
22923;DHT22;11627;51.322;22.816;2023-06-26T04:00:46;17.20;1.00
22923;DHT22;11627;51.322;22.816;2023-06-26T04:03:13;17.20;1.00
22923;DHT22;11627;51.322;22.816;2023-06-26T04:05:40;17.20;1.00
22923;DHT22;11627;51.322;22.816;2023-06-26T04:08:08;17.30;1.00
22923;DHT22;11627;51.322;22.816;2023-06-26T04:10:35;17.40;1.00
22923;DHT22;11627;51.322;22.816;2023-06-26T04:13:05;17.40;1.00
22923;DHT22;11627;51.322;22.816;2023-06-26T04:15:30;17.60;1.00
22923;DHT22;11627;51.322;22.816;2023-06-26T04:17:58;17.60;1.00
22923;DHT22;11627;51.322;22.816;2023-06-26T04:20:23;17.70;1.00
22923;DHT22;11627;51.322;22.816;2023-06-26T04:22:50;17.70;1.00
22923;DHT22;11627;51.322;22.816;2023-06-26T04:25:16;17.60;1.00
22923;DHT22;11627;51.322;22.816;2023-06-26T04:27:43;17.70;1.00
22923;DHT22;11627;51.322;22.816;2023-06-26T04:30:10;17.80;1.00
22923;DHT22;11627;51.322;22.816;2023-06-26T04:32:39;17.90;1.00
22923;DHT22;11627;51.322;22.816;2023-06-26T04:35:06;18.00;1.00
22923;DHT22;11627;51.322;22.816;2023-06-26T04:37:33;18.00;1.00
22923;DHT22;11627;51.322;22.816;2023-06-26T04:40:00;17.90;1.00
22923;DHT22;11627;51.322;22.816;2023-06-26T04:42:28;17.90;1.00
22923;DHT22;11627;51.322;22.816;2023-06-26T04:44:55;18.00;1.00
22923;DHT22;11627;51.322;22.816;2023-06-26T04:47:22;18.20;1.00
22923;DHT22;11627;51.322;22.816;2023-06-26T04:49:50;18.00;1.00
22923;DHT22;11627;51.322;22.816;2023-06-26T04:52:16;18.10;1.00
22923;DHT22;11627;51.322;22.816;2023-06-26T04:54:43;18.40;1.00
22923;DHT22;11627;51.322;22.816;2023-06-26T04:57:10;18.40;1.00
22923;DHT22;11627;51.322;22.816;2023-06-26T04:59:38;18.40;1.00
22923;DHT22;11627;51.322;22.816;2023-06-26T05:02:05;18.40;1.00
22923;DHT22;11627;51.322;22.816;2023-06-26T05:04:32;18.50;1.00
22923;DHT22;11627;51.322;22.816;2023-06-26T05:06:59;18.60;1.00
22923;DHT22;11627;51.322;22.816;2023-06-26T05:09:26;18.70;1.00
22923;DHT22;11627;51.322;22.816;2023-06-26T05:11:53;18.70;1.00
22923;DHT22;11627;51.322;22.816;2023-06-26T05:14:20;18.70;1.00
22923;DHT22;11627;51.322;22.816;2023-06-26T05:16:49;18.80;1.00
22923;DHT22;11627;51.322;22.816;2023-06-26T05:19:16;19.00;1.00
22923;DHT22;11627;51.322;22.816;2023-06-26T05:21:44;19.00;1.00
22923;DHT22;11627;51.322;22.816;2023-06-26T05:24:13;19.00;1.00
22923;DHT22;11627;51.322;22.816;2023-06-26T05:26:41;19.00;1.00
22923;DHT22;11627;51.322;22.816;2023-06-26T05:29:08;19.00;1.00
22923;DHT22;11627;51.322;22.816;2023-06-26T05:31:36;19.10;1.00
22923;DHT22;11627;51.322;22.816;2023-06-26T05:34:05;18.90;1.00
22923;DHT22;11627;51.322;22.816;2023-06-26T05:36:34;18.90;1.00
22923;DHT22;11627;51.322;22.816;2023-06-26T05:39:02;19.10;1.00
22923;DHT22;11627;51.322;22.816;2023-06-26T05:41:29;19.30;1.00
22923;DHT22;11627;51.322;22.816;2023-06-26T05:43:56;19.50;1.00
22923;DHT22;11627;51.322;22.816;2023-06-26T05:46:23;19.60;1.00
22923;DHT22;11627;51.322;22.816;2023-06-26T05:48:50;19.60;1.00
22923;DHT22;11627;51.322;22.816;2023-06-26T05:51:18;19.70;1.00
22923;DHT22;11627;51.322;22.816;2023-06-26T05:53:45;19.80;1.00
22923;DHT22;11627;51.322;22.816;2023-06-26T05:56:12;19.80;1.00
22923;DHT22;11627;51.322;22.816;2023-06-26T05:58:40;19.80;1.00
22923;DHT22;11627;51.322;22.816;2023-06-26T06:01:07;19.80;1.00
22923;DHT22;11627;51.322;22.816;2023-06-26T06:03:33;19.90;1.00
22923;DHT22;11627;51.322;22.816;2023-06-26T06:06:00;19.90;1.00
22923;DHT22;11627;51.322;22.816;2023-06-26T06:08:28;20.10;1.00
22923;DHT22;11627;51.322;22.816;2023-06-26T06:10:55;20.00;1.00
22923;DHT22;11627;51.322;22.816;2023-06-26T06:13:22;20.10;1.00
22923;DHT22;11627;51.322;22.816;2023-06-26T06:15:49;20.20;1.00
22923;DHT22;11627;51.322;22.816;2023-06-26T06:18:16;20.40;1.00
22923;DHT22;11627;51.322;22.816;2023-06-26T06:20:42;20.50;1.00
22923;DHT22;11627;51.322;22.816;2023-06-26T06:23:10;20.50;1.00
22923;DHT22;11627;51.322;22.816;2023-06-26T06:25:37;20.50;1.00
22923;DHT22;11627;51.322;22.816;2023-06-26T06:28:07;20.60;1.00
22923;DHT22;11627;51.322;22.816;2023-06-26T06:30:33;20.60;1.00
22923;DHT22;11627;51.322;22.816;2023-06-26T06:33:01;20.60;1.00
22923;DHT22;11627;51.322;22.816;2023-06-26T06:35:29;20.70;1.00
22923;DHT22;11627;51.322;22.816;2023-06-26T06:37:57;20.80;1.00
22923;DHT22;11627;51.322;22.816;2023-06-26T06:40:25;20.70;1.00
22923;DHT22;11627;51.322;22.816;2023-06-26T06:42:52;20.70;1.00
22923;DHT22;11627;51.322;22.816;2023-06-26T06:45:19;20.70;1.00
22923;DHT22;11627;51.322;22.816;2023-06-26T06:47:46;20.80;1.00
22923;DHT22;11627;51.322;22.816;2023-06-26T06:50:12;21.00;1.00
22923;DHT22;11627;51.322;22.816;2023-06-26T06:52:40;21.10;1.00
22923;DHT22;11627;51.322;22.816;2023-06-26T06:55:08;21.10;1.00
22923;DHT22;11627;51.322;22.816;2023-06-26T06:57:36;21.20;1.00
22923;DHT22;11627;51.322;22.816;2023-06-26T07:00:09;21.40;1.00
22923;DHT22;11627;51.322;22.816;2023-06-26T07:02:45;21.40;1.00
22923;DHT22;11627;51.322;22.816;2023-06-26T07:05:11;21.40;1.00
22923;DHT22;11627;51.322;22.816;2023-06-26T07:07:40;21.40;1.00
22923;DHT22;11627;51.322;22.816;2023-06-26T07:10:26;21.50;1.00
22923;DHT22;11627;51.322;22.816;2023-06-26T07:12:53;21.50;1.00
22923;DHT22;11627;51.322;22.816;2023-06-26T07:15:18;21.60;1.00
22923;DHT22;11627;51.322;22.816;2023-06-26T07:17:46;21.60;1.00
22923;DHT22;11627;51.322;22.816;2023-06-26T07:20:11;21.80;1.00
22923;DHT22;11627;51.322;22.816;2023-06-26T07:22:43;21.80;1.00
22923;DHT22;11627;51.322;22.816;2023-06-26T07:25:11;21.90;1.00
22923;DHT22;11627;51.322;22.816;2023-06-26T07:27:39;22.00;1.00
22923;DHT22;11627;51.322;22.816;2023-06-26T07:30:06;21.90;1.00
22923;DHT22;11627;51.322;22.816;2023-06-26T07:32:37;21.90;1.00
22923;DHT22;11627;51.322;22.816;2023-06-26T07:35:04;22.00;1.00
22923;DHT22;11627;51.322;22.816;2023-06-26T07:37:32;22.00;99.90
22923;DHT22;11627;51.322;22.816;2023-06-26T07:39:59;22.10;99.90
22923;DHT22;11627;51.322;22.816;2023-06-26T07:42:26;22.10;99.90
22923;DHT22;11627;51.322;22.816;2023-06-26T07:44:53;22.00;99.90
22923;DHT22;11627;51.322;22.816;2023-06-26T07:47:20;22.20;99.90
22923;DHT22;11627;51.322;22.816;2023-06-26T07:49:47;22.30;99.90
22923;DHT22;11627;51.322;22.816;2023-06-26T07:52:15;22.30;99.90
22923;DHT22;11627;51.322;22.816;2023-06-26T07:54:42;22.30;99.90
22923;DHT22;11627;51.322;22.816;2023-06-26T07:57:08;22.30;99.90
22923;DHT22;11627;51.322;22.816;2023-06-26T07:59:35;22.30;99.90
22923;DHT22;11627;51.322;22.816;2023-06-26T08:02:03;22.40;99.90
22923;DHT22;11627;51.322;22.816;2023-06-26T08:04:29;22.40;99.90
22923;DHT22;11627;51.322;22.816;2023-06-26T08:07:00;22.50;99.90
22923;DHT22;11627;51.322;22.816;2023-06-26T08:09:27;22.40;99.90
22923;DHT22;11627;51.322;22.816;2023-06-26T08:11:54;22.50;99.90
22923;DHT22;11627;51.322;22.816;2023-06-26T08:14:20;22.50;99.90
22923;DHT22;11627;51.322;22.816;2023-06-26T08:16:46;22.50;99.90
22923;DHT22;11627;51.322;22.816;2023-06-26T08:19:13;22.50;99.90
22923;DHT22;11627;51.322;22.816;2023-06-26T08:21:40;22.50;99.90
22923;DHT22;11627;51.322;22.816;2023-06-26T08:24:06;22.60;99.90
22923;DHT22;11627;51.322;22.816;2023-06-26T08:26:33;22.60;99.90
22923;DHT22;11627;51.322;22.816;2023-06-26T08:28:59;22.70;99.90
22923;DHT22;11627;51.322;22.816;2023-06-26T08:31:25;22.70;99.90
22923;DHT22;11627;51.322;22.816;2023-06-26T08:33:52;22.70;99.90
22923;DHT22;11627;51.322;22.816;2023-06-26T08:36:19;22.90;99.90
22923;DHT22;11627;51.322;22.816;2023-06-26T08:38:46;22.90;99.90
22923;DHT22;11627;51.322;22.816;2023-06-26T08:41:13;22.90;99.90
22923;DHT22;11627;51.322;22.816;2023-06-26T08:43:39;22.90;99.90
22923;DHT22;11627;51.322;22.816;2023-06-26T08:46:07;22.90;99.90
22923;DHT22;11627;51.322;22.816;2023-06-26T08:48:33;22.90;99.90
22923;DHT22;11627;51.322;22.816;2023-06-26T08:51:09;22.90;99.90
22923;DHT22;11627;51.322;22.816;2023-06-26T08:56:10;23.00;99.90
22923;DHT22;11627;51.322;22.816;2023-06-26T08:58:39;22.90;99.90
22923;DHT22;11627;51.322;22.816;2023-06-26T09:01:05;23.10;99.90
22923;DHT22;11627;51.322;22.816;2023-06-26T09:03:32;23.10;99.90
22923;DHT22;11627;51.322;22.816;2023-06-26T09:05:58;23.20;99.90
22923;DHT22;11627;51.322;22.816;2023-06-26T09:08:24;23.30;99.90
22923;DHT22;11627;51.322;22.816;2023-06-26T09:10:50;23.30;99.90
22923;DHT22;11627;51.322;22.816;2023-06-26T09:13:16;23.30;99.90
22923;DHT22;11627;51.322;22.816;2023-06-26T09:15:43;23.30;99.90
22923;DHT22;11627;51.322;22.816;2023-06-26T09:18:10;23.30;99.90
22923;DHT22;11627;51.322;22.816;2023-06-26T09:20:36;23.50;99.90
22923;DHT22;11627;51.322;22.816;2023-06-26T09:23:02;23.50;99.90
22923;DHT22;11627;51.322;22.816;2023-06-26T09:25:29;23.50;99.90
22923;DHT22;11627;51.322;22.816;2023-06-26T09:27:55;23.60;99.90
22923;DHT22;11627;51.322;22.816;2023-06-26T09:30:21;23.70;99.90
22923;DHT22;11627;51.322;22.816;2023-06-26T09:32:48;23.70;99.90
22923;DHT22;11627;51.322;22.816;2023-06-26T09:35:15;23.80;99.90
22923;DHT22;11627;51.322;22.816;2023-06-26T09:37:42;23.80;99.90
22923;DHT22;11627;51.322;22.816;2023-06-26T09:40:09;23.90;99.90
22923;DHT22;11627;51.322;22.816;2023-06-26T09:42:35;23.90;99.90
22923;DHT22;11627;51.322;22.816;2023-06-26T09:45:02;23.90;99.90
22923;DHT22;11627;51.322;22.816;2023-06-26T09:47:30;23.90;99.90
22923;DHT22;11627;51.322;22.816;2023-06-26T09:49:57;23.90;99.90
22923;DHT22;11627;51.322;22.816;2023-06-26T09:52:26;23.90;99.90
22923;DHT22;11627;51.322;22.816;2023-06-26T09:55:08;23.80;99.90
22923;DHT22;11627;51.322;22.816;2023-06-26T09:57:35;23.70;99.90
22923;DHT22;11627;51.322;22.816;2023-06-26T10:00:02;23.70;99.90
22923;DHT22;11627;51.322;22.816;2023-06-26T10:02:28;23.70;99.90
22923;DHT22;11627;51.322;22.816;2023-06-26T10:04:54;23.70;99.90
22923;DHT22;11627;51.322;22.816;2023-06-26T10:07:22;23.80;99.90
22923;DHT22;11627;51.322;22.816;2023-06-26T10:09:50;23.90;99.90
22923;DHT22;11627;51.322;22.816;2023-06-26T10:12:25;23.90;99.90
22923;DHT22;11627;51.322;22.816;2023-06-26T10:14:52;23.90;99.90
22923;DHT22;11627;51.322;22.816;2023-06-26T10:17:19;23.90;99.90
22923;DHT22;11627;51.322;22.816;2023-06-26T10:19:48;24.10;99.90
22923;DHT22;11627;51.322;22.816;2023-06-26T10:22:18;24.10;99.90
22923;DHT22;11627;51.322;22.816;2023-06-26T10:24:48;24.20;99.90
22923;DHT22;11627;51.322;22.816;2023-06-26T10:27:19;24.20;99.90
22923;DHT22;11627;51.322;22.816;2023-06-26T10:30:06;24.30;99.90
22923;DHT22;11627;51.322;22.816;2023-06-26T10:32:35;24.40;99.90
22923;DHT22;11627;51.322;22.816;2023-06-26T10:35:02;24.40;99.90
22923;DHT22;11627;51.322;22.816;2023-06-26T10:37:46;24.40;99.90
22923;DHT22;11627;51.322;22.816;2023-06-26T10:40:13;24.40;99.90
22923;DHT22;11627;51.322;22.816;2023-06-26T10:42:40;24.50;99.90
22923;DHT22;11627;51.322;22.816;2023-06-26T10:47:47;24.40;99.90
22923;DHT22;11627;51.322;22.816;2023-06-26T10:50:29;24.40;99.90
22923;DHT22;11627;51.322;22.816;2023-06-26T10:56:02;24.50;99.90
22923;DHT22;11627;51.322;22.816;2023-06-26T11:01:18;24.70;99.90
22923;DHT22;11627;51.322;22.816;2023-06-26T11:03:49;24.80;99.90
22923;DHT22;11627;51.322;22.816;2023-06-26T11:06:18;24.90;99.90
22923;DHT22;11627;51.322;22.816;2023-06-26T11:09:07;25.10;99.90
22923;DHT22;11627;51.322;22.816;2023-06-26T11:14:18;25.20;99.90
22923;DHT22;11627;51.322;22.816;2023-06-26T11:16:46;25.20;99.90
22923;DHT22;11627;51.322;22.816;2023-06-26T11:19:13;25.10;99.90
22923;DHT22;11627;51.322;22.816;2023-06-26T11:21:39;25.10;99.90
22923;DHT22;11627;51.322;22.816;2023-06-26T11:24:11;25.10;99.90
22923;DHT22;11627;51.322;22.816;2023-06-26T11:26:41;25.10;99.90
22923;DHT22;11627;51.322;22.816;2023-06-26T11:29:08;25.00;99.90
22923;DHT22;11627;51.322;22.816;2023-06-26T11:31:38;25.00;99.90
22923;DHT22;11627;51.322;22.816;2023-06-26T11:34:07;25.00;99.90
22923;DHT22;11627;51.322;22.816;2023-06-26T11:36:34;25.10;99.90
22923;DHT22;11627;51.322;22.816;2023-06-26T11:39:05;25.10;99.90
22923;DHT22;11627;51.322;22.816;2023-06-26T11:41:32;25.10;99.90
22923;DHT22;11627;51.322;22.816;2023-06-26T11:44:02;25.00;99.90
22923;DHT22;11627;51.322;22.816;2023-06-26T11:46:29;24.90;99.90
22923;DHT22;11627;51.322;22.816;2023-06-26T11:48:55;25.00;99.90
22923;DHT22;11627;51.322;22.816;2023-06-26T11:51:21;24.90;99.90
22923;DHT22;11627;51.322;22.816;2023-06-26T11:53:47;25.00;99.90
22923;DHT22;11627;51.322;22.816;2023-06-26T11:56:16;25.00;99.90
22923;DHT22;11627;51.322;22.816;2023-06-26T12:01:34;25.10;99.90
22923;DHT22;11627;51.322;22.816;2023-06-26T12:04:02;25.00;99.90
22923;DHT22;11627;51.322;22.816;2023-06-26T12:06:30;25.10;99.90
22923;DHT22;11627;51.322;22.816;2023-06-26T12:09:00;25.00;99.90
22923;DHT22;11627;51.322;22.816;2023-06-26T12:11:27;24.90;99.90
22923;DHT22;11627;51.322;22.816;2023-06-26T12:13:54;24.90;99.90
22923;DHT22;11627;51.322;22.816;2023-06-26T12:16:21;24.80;99.90
22923;DHT22;11627;51.322;22.816;2023-06-26T12:18:47;24.90;99.90
22923;DHT22;11627;51.322;22.816;2023-06-26T12:24:09;24.90;99.90
22923;DHT22;11627;51.322;22.816;2023-06-26T12:26:36;24.90;99.90
22923;DHT22;11627;51.322;22.816;2023-06-26T12:29:12;24.90;99.90
22923;DHT22;11627;51.322;22.816;2023-06-26T12:31:44;25.00;99.90
22923;DHT22;11627;51.322;22.816;2023-06-26T12:34:12;25.00;99.90
22923;DHT22;11627;51.322;22.816;2023-06-26T12:36:50;25.00;99.90
22923;DHT22;11627;51.322;22.816;2023-06-26T12:39:23;25.00;99.90
22923;DHT22;11627;51.322;22.816;2023-06-26T12:41:57;25.00;99.90
22923;DHT22;11627;51.322;22.816;2023-06-26T12:44:37;25.10;99.90
22923;DHT22;11627;51.322;22.816;2023-06-26T12:47:03;25.10;99.90
22923;DHT22;11627;51.322;22.816;2023-06-26T12:49:38;25.10;99.90
22923;DHT22;11627;51.322;22.816;2023-06-26T12:52:09;25.10;99.90
22923;DHT22;11627;51.322;22.816;2023-06-26T12:54:39;25.10;99.90
22923;DHT22;11627;51.322;22.816;2023-06-26T12:57:06;25.20;99.90
22923;DHT22;11627;51.322;22.816;2023-06-26T12:59:41;25.30;99.90
22923;DHT22;11627;51.322;22.816;2023-06-26T13:02:09;25.50;99.90
22923;DHT22;11627;51.322;22.816;2023-06-26T13:04:40;25.50;99.90
22923;DHT22;11627;51.322;22.816;2023-06-26T13:07:11;25.50;99.90
22923;DHT22;11627;51.322;22.816;2023-06-26T13:09:38;25.60;99.90
22923;DHT22;11627;51.322;22.816;2023-06-26T13:12:06;25.60;99.90
22923;DHT22;11627;51.322;22.816;2023-06-26T13:14:32;25.60;99.90
22923;DHT22;11627;51.322;22.816;2023-06-26T13:17:00;25.60;99.90
22923;DHT22;11627;51.322;22.816;2023-06-26T13:19:27;25.50;99.90
22923;DHT22;11627;51.322;22.816;2023-06-26T13:21:54;25.30;99.90
22923;DHT22;11627;51.322;22.816;2023-06-26T13:24:21;25.30;99.90
22923;DHT22;11627;51.322;22.816;2023-06-26T13:26:48;25.20;99.90
22923;DHT22;11627;51.322;22.816;2023-06-26T13:29:14;25.30;99.90
22923;DHT22;11627;51.322;22.816;2023-06-26T13:31:42;25.30;99.90
22923;DHT22;11627;51.322;22.816;2023-06-26T13:34:23;25.50;99.90
22923;DHT22;11627;51.322;22.816;2023-06-26T13:36:51;25.50;99.90
22923;DHT22;11627;51.322;22.816;2023-06-26T13:39:18;25.60;99.90
22923;DHT22;11627;51.322;22.816;2023-06-26T13:41:45;25.60;99.90
22923;DHT22;11627;51.322;22.816;2023-06-26T13:44:12;25.50;99.90
22923;DHT22;11627;51.322;22.816;2023-06-26T13:46:39;25.50;99.90
22923;DHT22;11627;51.322;22.816;2023-06-26T13:49:06;25.50;99.90
22923;DHT22;11627;51.322;22.816;2023-06-26T13:51:33;25.50;99.90
22923;DHT22;11627;51.322;22.816;2023-06-26T13:54:00;25.60;99.90
22923;DHT22;11627;51.322;22.816;2023-06-26T13:56:27;25.70;99.90
22923;DHT22;11627;51.322;22.816;2023-06-26T13:58:57;25.80;99.90
22923;DHT22;11627;51.322;22.816;2023-06-26T14:01:25;25.80;99.90
22923;DHT22;11627;51.322;22.816;2023-06-26T14:03:52;25.80;99.90
22923;DHT22;11627;51.322;22.816;2023-06-26T14:06:19;25.70;99.90
22923;DHT22;11627;51.322;22.816;2023-06-26T14:08:46;25.80;99.90
22923;DHT22;11627;51.322;22.816;2023-06-26T14:11:13;25.70;99.90
22923;DHT22;11627;51.322;22.816;2023-06-26T14:13:42;25.70;99.90
22923;DHT22;11627;51.322;22.816;2023-06-26T14:16:09;25.80;99.90
22923;DHT22;11627;51.322;22.816;2023-06-26T14:18:38;25.80;99.90
22923;DHT22;11627;51.322;22.816;2023-06-26T14:21:03;25.90;99.90
22923;DHT22;11627;51.322;22.816;2023-06-26T14:23:30;25.90;99.90
22923;DHT22;11627;51.322;22.816;2023-06-26T14:25:56;25.90;99.90
22923;DHT22;11627;51.322;22.816;2023-06-26T14:28:23;25.90;99.90
22923;DHT22;11627;51.322;22.816;2023-06-26T14:30:49;26.00;99.90
22923;DHT22;11627;51.322;22.816;2023-06-26T14:33:16;26.00;99.90
22923;DHT22;11627;51.322;22.816;2023-06-26T14:35:44;26.00;99.90
22923;DHT22;11627;51.322;22.816;2023-06-26T14:38:12;26.10;99.90
22923;DHT22;11627;51.322;22.816;2023-06-26T14:40:39;26.10;99.90
22923;DHT22;11627;51.322;22.816;2023-06-26T14:43:06;26.10;99.90
22923;DHT22;11627;51.322;22.816;2023-06-26T14:45:33;26.10;99.90
22923;DHT22;11627;51.322;22.816;2023-06-26T14:48:00;26.10;99.90
22923;DHT22;11627;51.322;22.816;2023-06-26T14:50:27;26.20;99.90
22923;DHT22;11627;51.322;22.816;2023-06-26T14:52:53;26.10;99.90
22923;DHT22;11627;51.322;22.816;2023-06-26T14:55:22;26.10;99.90
22923;DHT22;11627;51.322;22.816;2023-06-26T14:57:49;26.10;99.90
22923;DHT22;11627;51.322;22.816;2023-06-26T15:00:15;26.20;99.90
22923;DHT22;11627;51.322;22.816;2023-06-26T15:02:43;26.30;99.90
22923;DHT22;11627;51.322;22.816;2023-06-26T15:05:10;26.30;99.90
22923;DHT22;11627;51.322;22.816;2023-06-26T15:07:37;26.40;99.90
22923;DHT22;11627;51.322;22.816;2023-06-26T15:10:04;26.30;99.90
22923;DHT22;11627;51.322;22.816;2023-06-26T15:12:33;26.40;99.90
22923;DHT22;11627;51.322;22.816;2023-06-26T15:15:00;26.40;99.90
22923;DHT22;11627;51.322;22.816;2023-06-26T15:17:27;26.50;99.90
22923;DHT22;11627;51.322;22.816;2023-06-26T15:19:54;26.60;99.90
22923;DHT22;11627;51.322;22.816;2023-06-26T15:22:22;26.40;99.90
22923;DHT22;11627;51.322;22.816;2023-06-26T15:24:50;26.50;99.90
22923;DHT22;11627;51.322;22.816;2023-06-26T15:27:17;26.50;99.90
22923;DHT22;11627;51.322;22.816;2023-06-26T15:29:44;26.60;99.90
22923;DHT22;11627;51.322;22.816;2023-06-26T15:32:11;26.60;99.90
22923;DHT22;11627;51.322;22.816;2023-06-26T15:34:38;26.70;99.90
22923;DHT22;11627;51.322;22.816;2023-06-26T15:37:05;26.80;99.90
22923;DHT22;11627;51.322;22.816;2023-06-26T15:39:32;26.70;99.90
22923;DHT22;11627;51.322;22.816;2023-06-26T15:41:59;26.70;99.90
22923;DHT22;11627;51.322;22.816;2023-06-26T15:44:26;26.80;99.90
22923;DHT22;11627;51.322;22.816;2023-06-26T15:46:53;26.80;99.90
22923;DHT22;11627;51.322;22.816;2023-06-26T15:49:20;26.80;99.90
22923;DHT22;11627;51.322;22.816;2023-06-26T15:51:47;26.90;99.90
22923;DHT22;11627;51.322;22.816;2023-06-26T15:54:14;27.00;99.90
22923;DHT22;11627;51.322;22.816;2023-06-26T15:56:42;27.00;99.90
22923;DHT22;11627;51.322;22.816;2023-06-26T15:59:11;27.10;99.90
22923;DHT22;11627;51.322;22.816;2023-06-26T16:01:38;27.10;99.90